createdAt,value
2022-09-23T00:01:21.989Z,6.76
2022-09-23T00:03:49.938Z,6.73
2022-09-23T00:06:22.547Z,6.73
2022-09-23T00:08:51.899Z,6.71
2022-09-23T00:11:23.755Z,6.69
2022-09-23T00:13:55.976Z,6.67
2022-09-23T00:16:28.626Z,6.61
2022-09-23T00:18:56.752Z,6.58
2022-09-23T00:21:24.748Z,6.59
2022-09-23T00:23:54.021Z,6.56
2022-09-23T00:26:23.533Z,6.54
2022-09-23T00:28:51.433Z,6.60
2022-09-23T00:31:25.180Z,6.62
2022-09-23T00:34:01.567Z,6.58
2022-09-23T00:36:30.846Z,6.58
2022-09-23T00:38:58.364Z,6.62
2022-09-23T00:41:26.552Z,6.65
2022-09-23T00:43:57.192Z,6.65
2022-09-23T00:46:35.283Z,6.68
2022-09-23T00:49:29.530Z,6.73
2022-09-23T00:52:06.837Z,6.74
2022-09-23T00:54:34.231Z,6.76
2022-09-23T00:57:02.363Z,6.72
2022-09-23T00:59:30.059Z,6.72
2022-09-23T01:02:00.257Z,6.75
2022-09-23T01:04:29.916Z,6.74
2022-09-23T01:06:57.482Z,6.77
2022-09-23T01:09:25.612Z,6.76
2022-09-23T01:12:39.197Z,6.72
2022-09-23T01:15:23.140Z,6.69
2022-09-23T01:18:16.780Z,6.73
2022-09-23T01:21:08.808Z,6.72
2022-09-23T01:24:00.036Z,6.73
2022-09-23T01:26:40.826Z,6.68
2022-09-23T01:29:48.180Z,6.65
2022-09-23T01:32:58.448Z,6.69
2022-09-23T01:35:48.106Z,6.66
2022-09-23T01:38:41.017Z,6.64
2022-09-23T01:41:38.753Z,6.64
2022-09-23T01:44:51.927Z,6.66
2022-09-23T01:47:41.897Z,6.65
2022-09-23T01:50:19.581Z,6.64
2022-09-23T01:52:48.562Z,6.69
2022-09-23T01:55:47.738Z,6.68
2022-09-23T01:58:27.632Z,6.65
2022-09-23T02:01:05.285Z,6.64
2022-09-23T02:03:54.996Z,6.67
2022-09-23T02:06:32.052Z,6.68
2022-09-23T02:09:15.219Z,6.70
2022-09-23T02:11:48.584Z,6.70
2022-09-23T02:14:29.373Z,6.73
2022-09-23T02:17:07.185Z,6.73
2022-09-23T02:19:50.639Z,6.75
2022-09-23T02:22:28.359Z,6.73
2022-09-23T02:24:58.085Z,6.74
2022-09-23T02:27:50.569Z,6.74
2022-09-23T02:30:26.468Z,6.72
2022-09-23T02:33:11.056Z,6.71
2022-09-23T02:36:03.452Z,6.67
2022-09-23T02:38:46.382Z,6.68
2022-09-23T02:41:48.885Z,6.63
2022-09-23T02:44:20.421Z,6.57
2022-09-23T02:46:47.689Z,6.55
2022-09-23T02:49:28.369Z,6.52
2022-09-23T02:52:00.130Z,6.50
2022-09-23T02:54:29.247Z,6.47
2022-09-23T02:56:56.669Z,6.37
2022-09-23T02:59:24.663Z,6.34
2022-09-23T03:02:19.145Z,6.27
2022-09-23T03:05:17.755Z,6.27
2022-09-23T03:08:15.840Z,6.25
2022-09-23T03:11:12.009Z,6.16
2022-09-23T03:14:18.223Z,6.17
2022-09-23T03:17:13.774Z,6.17
2022-09-23T03:19:58.602Z,6.16
2022-09-23T03:22:36.870Z,6.12
2022-09-23T03:25:12.649Z,6.09
2022-09-23T03:27:41.312Z,6.10
2022-09-23T03:30:10.462Z,6.11
2022-09-23T03:32:41.918Z,6.10
2022-09-23T03:35:09.758Z,6.09
2022-09-23T03:38:00.239Z,6.06
2022-09-23T03:40:32.094Z,6.02
2022-09-23T03:43:01.034Z,5.96
2022-09-23T03:45:33.549Z,5.96
2022-09-23T03:48:01.905Z,5.96
2022-09-23T03:50:29.560Z,5.92
2022-09-23T03:52:56.828Z,5.91
2022-09-23T03:55:24.191Z,5.90
2022-09-23T03:57:53.894Z,5.95
2022-09-23T04:00:21.048Z,5.94
2022-09-23T04:02:48.320Z,5.95
2022-09-23T04:05:15.680Z,5.95
2022-09-23T04:07:42.845Z,5.90
2022-09-23T04:10:11.307Z,5.89
2022-09-23T04:12:38.644Z,5.92
2022-09-23T04:15:06.839Z,5.94
2022-09-23T04:17:34.017Z,5.92
2022-09-23T04:20:01.502Z,5.91
2022-09-23T04:22:28.690Z,5.91
2022-09-23T04:24:55.845Z,5.88
2022-09-23T04:27:22.986Z,5.89
2022-09-23T04:29:50.545Z,5.89
2022-09-23T04:32:17.701Z,5.85
2022-09-23T04:34:44.959Z,5.85
2022-09-23T04:37:12.111Z,5.79
2022-09-23T04:39:39.297Z,5.85
2022-09-23T04:42:06.691Z,5.84
2022-09-23T04:44:33.913Z,5.86
2022-09-23T04:47:01.082Z,5.92
2022-09-23T04:49:28.223Z,5.92
2022-09-23T04:51:55.440Z,5.94
2022-09-23T04:54:22.653Z,5.96
2022-09-23T04:56:49.843Z,5.98
2022-09-23T04:59:17.116Z,5.99
2022-09-23T05:01:44.352Z,6.06
2022-09-23T05:04:12.004Z,6.04
2022-09-23T05:06:39.420Z,6.03
2022-09-23T05:09:08.824Z,6.08
2022-09-23T05:11:36.298Z,6.12
2022-09-23T05:14:03.861Z,6.16
2022-09-23T05:16:31.723Z,6.16
2022-09-23T05:18:59.041Z,6.17
2022-09-23T05:21:27.758Z,6.22
2022-09-23T05:23:57.600Z,6.23
2022-09-23T05:26:28.306Z,6.28
2022-09-23T05:28:56.738Z,6.31
2022-09-23T05:31:30.017Z,6.34
2022-09-23T05:34:00.917Z,6.35
2022-09-23T05:36:35.576Z,6.35
2022-09-23T05:39:05.528Z,6.35
2022-09-23T05:41:32.813Z,6.36
2022-09-23T05:44:00.087Z,6.38
2022-09-23T05:46:30.592Z,6.39
2022-09-23T05:49:02.911Z,6.41
2022-09-23T05:51:33.300Z,6.43
2022-09-23T05:54:01.554Z,6.42
2022-09-23T05:56:29.059Z,6.45
2022-09-23T05:59:00.463Z,6.48
2022-09-23T06:01:31.651Z,6.48
2022-09-23T06:04:00.889Z,6.51
2022-09-23T06:06:32.926Z,6.50
2022-09-23T06:09:01.062Z,6.50
2022-09-23T06:11:32.698Z,6.51
2022-09-23T06:14:00.916Z,6.48
2022-09-23T06:16:31.387Z,6.51
2022-09-23T06:19:03.167Z,6.50
2022-09-23T06:21:38.979Z,6.55
2022-09-23T06:24:09.348Z,6.55
2022-09-23T06:26:38.058Z,6.59
2022-09-23T06:29:12.494Z,6.63
2022-09-23T06:31:40.104Z,6.66
2022-09-23T06:34:12.730Z,6.71
2022-09-23T06:36:46.228Z,6.76
2022-09-23T06:39:16.709Z,6.81
2022-09-23T06:41:44.927Z,6.88
2022-09-23T06:44:13.762Z,6.93
2022-09-23T06:46:42.104Z,6.95
2022-09-23T06:49:09.346Z,7.01
2022-09-23T06:51:36.527Z,7.01
2022-09-23T06:54:03.899Z,7.08
2022-09-23T06:56:34.882Z,7.15
2022-09-23T06:59:09.487Z,7.18
2022-09-23T07:01:36.861Z,7.26
2022-09-23T07:04:04.207Z,7.35
2022-09-23T07:06:31.711Z,7.39
2022-09-23T07:08:58.855Z,7.47
2022-09-23T07:11:26.126Z,7.53
2022-09-23T07:13:53.311Z,7.57
2022-09-23T07:16:20.618Z,7.65
2022-09-23T07:18:48.137Z,7.78
2022-09-23T07:21:18.789Z,7.82
2022-09-23T07:23:49.213Z,7.95
2022-09-23T07:26:18.112Z,8.01
2022-09-23T07:28:45.338Z,8.15
2022-09-23T07:31:23.124Z,8.27
2022-09-23T07:33:58.599Z,8.42
2022-09-23T07:36:26.121Z,8.50
2022-09-23T07:38:54.082Z,8.60
2022-09-23T07:41:21.396Z,8.75
2022-09-23T07:43:48.565Z,8.86
2022-09-23T07:46:17.974Z,8.98
2022-09-23T07:48:46.357Z,9.10
2022-09-23T07:51:19.645Z,9.19
2022-09-23T07:53:49.642Z,9.31
2022-09-23T07:56:19.190Z,9.41
2022-09-23T07:58:48.170Z,9.55
2022-09-23T08:01:15.421Z,9.64
2022-09-23T08:03:45.781Z,9.71
2022-09-23T08:06:13.908Z,9.76
2022-09-23T08:08:42.065Z,9.81
2022-09-23T08:11:12.833Z,9.87
2022-09-23T08:13:41.588Z,9.86
2022-09-23T08:16:09.949Z,9.92
2022-09-23T08:18:38.269Z,10.03
2022-09-23T08:21:06.010Z,10.11
2022-09-23T08:23:33.191Z,10.23
2022-09-23T08:26:05.551Z,10.29
2022-09-23T08:28:33.263Z,10.35
2022-09-23T08:31:01.466Z,10.42
2022-09-23T08:33:28.952Z,10.44
2022-09-23T08:36:01.977Z,10.52
2022-09-23T08:38:30.384Z,10.58
2022-09-23T08:41:43.533Z,10.69
2022-09-23T08:44:21.936Z,10.75
2022-09-23T08:47:09.081Z,10.84
2022-09-23T08:49:48.221Z,10.87
2022-09-23T08:52:32.052Z,10.93
2022-09-23T08:54:59.727Z,11.04
2022-09-23T08:58:24.933Z,11.08
2022-09-23T09:01:43.670Z,11.17
2022-09-23T09:04:33.331Z,11.24
2022-09-23T09:07:35.204Z,11.29
2022-09-23T09:10:33.358Z,11.29
2022-09-23T09:13:04.693Z,11.37
2022-09-23T09:15:40.801Z,11.42
2022-09-23T09:18:19.660Z,11.52
2022-09-23T09:21:12.623Z,11.63
2022-09-23T09:23:56.958Z,11.71
2022-09-23T09:26:29.247Z,11.78
2022-09-23T09:29:23.693Z,11.81
2022-09-23T09:31:58.804Z,11.90
2022-09-23T09:34:49.808Z,12.01
2022-09-23T09:37:45.117Z,12.04
2022-09-23T09:40:14.526Z,12.11
2022-09-23T09:42:47.061Z,12.17
2022-09-23T09:46:07.121Z,12.23
2022-09-23T09:48:45.781Z,12.33
2022-09-23T09:51:21.398Z,12.40
2022-09-23T09:53:50.119Z,12.51
2022-09-23T09:56:21.519Z,12.60
2022-09-23T09:59:00.816Z,12.71
2022-09-23T10:01:33.061Z,12.81
2022-09-23T10:04:33.894Z,12.90
2022-09-23T10:07:14.005Z,12.96
2022-09-23T10:09:50.119Z,13.02
2022-09-23T10:12:21.140Z,13.06
2022-09-23T10:14:51.885Z,13.12
2022-09-23T10:17:33.736Z,13.25
2022-09-23T10:20:08.097Z,13.36
2022-09-23T10:22:41.918Z,13.43
2022-09-23T10:25:19.158Z,13.56
2022-09-23T10:27:46.473Z,13.68
2022-09-23T10:30:27.346Z,13.87
2022-09-23T10:32:55.956Z,14.12
2022-09-23T10:35:25.619Z,14.76
2022-09-23T10:37:54.999Z,15.87
2022-09-23T10:40:37.461Z,17.53
2022-09-23T10:43:42.083Z,19.62
2022-09-23T10:46:20.273Z,21.14
2022-09-23T10:49:16.160Z,22.64
2022-09-23T10:52:26.932Z,24.11
2022-09-23T10:55:20.460Z,25.01
2022-09-23T10:58:25.118Z,25.64
2022-09-23T11:01:23.907Z,26.45
2022-09-23T11:04:37.189Z,27.17
2022-09-23T11:07:37.097Z,27.82
2022-09-23T11:10:52.708Z,28.38
2022-09-23T11:13:54.882Z,28.74
2022-09-23T11:16:41.761Z,29.09
2022-09-23T11:19:50.129Z,29.56
2022-09-23T11:22:43.690Z,29.87
2022-09-23T11:25:47.154Z,30.08
2022-09-23T11:28:44.707Z,30.17
2022-09-23T11:32:04.127Z,29.62
2022-09-23T11:34:54.324Z,29.40
2022-09-23T11:37:51.048Z,29.38
2022-09-23T11:40:42.385Z,29.07
2022-09-23T11:43:23.157Z,29.16
2022-09-23T11:46:30.752Z,29.03
2022-09-23T11:49:22.815Z,28.67
2022-09-23T11:51:54.330Z,28.25
2022-09-23T11:54:48.924Z,27.86
2022-09-23T11:57:49.527Z,27.24
2022-09-23T12:00:26.149Z,27.10
2022-09-23T12:03:45.086Z,26.88
2022-09-23T12:06:45.676Z,26.53
2022-09-23T12:10:05.032Z,26.25
2022-09-23T12:12:57.421Z,25.76
2022-09-23T12:16:02.143Z,25.20
2022-09-23T12:19:00.273Z,24.66
2022-09-23T12:22:09.244Z,24.09
2022-09-23T12:24:56.430Z,23.67
2022-09-23T12:27:37.482Z,23.54
2022-09-23T12:30:20.512Z,23.39
2022-09-23T12:32:48.378Z,23.23
2022-09-23T12:35:32.997Z,22.96
2022-09-23T12:38:02.287Z,22.87
2022-09-23T12:40:36.786Z,22.84
2022-09-23T12:43:06.163Z,22.75
2022-09-23T12:45:39.846Z,22.64
2022-09-23T12:48:16.287Z,22.54
2022-09-23T12:50:54.589Z,22.60
2022-09-23T12:53:34.968Z,22.59
2022-09-23T12:56:19.515Z,22.68
2022-09-23T12:58:47.192Z,22.67
2022-09-23T13:01:25.977Z,22.55
2022-09-23T13:03:58.790Z,22.49
2022-09-23T13:06:41.032Z,22.40
2022-09-23T13:09:21.522Z,22.43
2022-09-23T13:11:49.395Z,22.46
2022-09-23T13:14:27.499Z,22.58
2022-09-23T13:16:57.209Z,22.60
2022-09-23T13:19:27.515Z,22.63
2022-09-23T13:21:54.878Z,22.77
2022-09-23T13:24:25.223Z,22.88
2022-09-23T13:27:19.881Z,22.86
2022-09-23T13:30:19.311Z,22.78
2022-09-23T13:33:03.472Z,22.67
2022-09-23T13:35:39.690Z,22.68
2022-09-23T13:38:31.571Z,22.62
2022-09-23T13:41:11.126Z,22.69
2022-09-23T13:43:43.595Z,22.65
2022-09-23T13:46:17.966Z,22.75
2022-09-23T13:48:48.430Z,22.79
2022-09-23T13:51:36.520Z,22.84
2022-09-23T13:54:05.622Z,22.94
2022-09-23T13:56:34.235Z,22.94
2022-09-23T13:59:27.735Z,22.94
2022-09-23T14:02:14.248Z,22.94
2022-09-23T14:04:41.693Z,23.01
2022-09-23T14:07:14.262Z,23.04
2022-09-23T14:09:49.931Z,23.10
2022-09-23T14:12:18.334Z,23.24
2022-09-23T14:14:45.801Z,23.28
2022-09-23T14:17:22.376Z,23.35
2022-09-23T14:19:51.433Z,23.31
2022-09-23T14:22:29.334Z,23.30
2022-09-23T14:24:58.748Z,23.27
2022-09-23T14:27:32.860Z,23.20
2022-09-23T14:30:03.792Z,23.06
2022-09-23T14:32:31.825Z,22.92
2022-09-23T14:35:02.000Z,22.86
2022-09-23T14:37:38.247Z,22.82
2022-09-23T14:40:15.128Z,22.84
2022-09-23T14:43:05.877Z,22.91
2022-09-23T14:45:40.072Z,22.94
2022-09-23T14:48:17.700Z,23.08
2022-09-23T14:51:10.795Z,23.15
2022-09-23T14:53:42.762Z,23.15
2022-09-23T14:56:20.730Z,23.08
2022-09-23T14:59:00.358Z,22.88
2022-09-23T15:01:33.413Z,22.80
2022-09-23T15:04:17.601Z,22.70
2022-09-23T15:06:58.315Z,22.63
2022-09-23T15:09:31.466Z,22.59
2022-09-23T15:12:05.213Z,22.63
2022-09-23T15:14:41.777Z,22.66
2022-09-23T15:17:36.721Z,22.63
2022-09-23T15:20:17.242Z,22.55
2022-09-23T15:22:51.529Z,22.48
2022-09-23T15:25:33.844Z,22.26
2022-09-23T15:28:08.622Z,21.94
2022-09-23T15:30:37.399Z,21.62
2022-09-23T15:33:05.797Z,21.24
2022-09-23T15:35:33.348Z,20.89
2022-09-23T15:38:01.880Z,20.59
2022-09-23T15:40:36.501Z,20.27
2022-09-23T15:43:36.298Z,19.91
2022-09-23T15:46:20.537Z,19.62
2022-09-23T15:48:59.109Z,19.46
2022-09-23T15:51:27.901Z,19.23
2022-09-23T15:53:55.772Z,19.10
2022-09-23T15:56:24.965Z,18.94
2022-09-23T15:58:52.169Z,18.80
2022-09-23T16:01:32.289Z,18.67
2022-09-23T16:03:59.711Z,18.51
2022-09-23T16:06:27.272Z,18.37
2022-09-23T16:08:55.077Z,18.28
2022-09-23T16:11:26.332Z,18.05
2022-09-23T16:13:54.102Z,17.94
2022-09-23T16:16:21.441Z,17.85
2022-09-23T16:18:50.059Z,17.77
2022-09-23T16:21:21.350Z,17.66
2022-09-23T16:23:55.031Z,17.49
2022-09-23T16:26:31.013Z,17.46
2022-09-23T16:29:00.613Z,17.37
2022-09-23T16:31:28.659Z,17.21
2022-09-23T16:33:56.251Z,17.13
2022-09-23T16:36:42.598Z,17.06
2022-09-23T16:39:13.984Z,16.91
2022-09-23T16:41:41.458Z,16.86
2022-09-23T16:44:08.677Z,16.75
2022-09-23T16:46:36.400Z,16.77
2022-09-23T16:49:04.310Z,16.69
2022-09-23T16:51:34.457Z,16.61
2022-09-23T16:54:01.876Z,16.54
2022-09-23T16:56:29.497Z,16.49
2022-09-23T16:58:57.406Z,16.36
2022-09-23T17:01:28.625Z,16.28
2022-09-23T17:03:55.815Z,16.16
2022-09-23T17:06:22.955Z,16.11
2022-09-23T17:08:50.148Z,16.03
2022-09-23T17:11:17.975Z,15.95
2022-09-23T17:13:45.685Z,15.88
2022-09-23T17:16:31.197Z,15.80
2022-09-23T17:18:58.956Z,15.77
2022-09-23T17:22:22.119Z,15.67
2022-09-23T17:24:49.261Z,15.53
2022-09-23T17:27:16.500Z,15.49
2022-09-23T17:29:43.756Z,15.42
2022-09-23T17:32:11.072Z,15.40
2022-09-23T17:34:38.723Z,15.39
2022-09-23T17:37:06.197Z,15.30
2022-09-23T17:39:33.551Z,15.20
2022-09-23T17:42:01.256Z,15.09
2022-09-23T17:44:40.772Z,15.00
2022-09-23T17:47:08.143Z,14.95
2022-09-23T17:49:35.697Z,14.90
2022-09-23T17:52:03.923Z,14.90
2022-09-23T17:54:35.054Z,14.86
2022-09-23T17:57:03.474Z,14.82
2022-09-23T17:59:30.958Z,14.76
2022-09-23T18:01:58.447Z,14.81
2022-09-23T18:04:25.888Z,14.76
2022-09-23T18:06:53.158Z,14.73
2022-09-23T18:09:21.091Z,14.66
2022-09-23T18:11:48.627Z,14.63
2022-09-23T18:14:23.649Z,14.62
2022-09-23T18:16:53.458Z,14.59
2022-09-23T18:19:23.556Z,14.56
2022-09-23T18:21:55.986Z,14.49
2022-09-23T18:24:33.073Z,14.46
2022-09-23T18:27:02.212Z,14.41
2022-09-23T18:29:30.291Z,14.39
2022-09-23T18:31:58.530Z,14.38
2022-09-23T18:34:25.774Z,14.31
2022-09-23T18:36:54.013Z,14.28
2022-09-23T18:39:22.209Z,14.23
2022-09-23T18:41:50.670Z,14.21
2022-09-23T18:44:18.388Z,14.19
2022-09-23T18:46:45.620Z,14.15
2022-09-23T18:49:13.288Z,14.15
2022-09-23T18:52:01.899Z,14.11
2022-09-23T18:54:30.878Z,14.08
2022-09-23T18:56:59.343Z,14.03
2022-09-23T18:59:29.030Z,14.00
2022-09-23T19:01:57.499Z,13.99
2022-09-23T19:04:27.237Z,13.96
2022-09-23T19:06:56.251Z,13.92
2022-09-23T19:09:23.983Z,13.85
2022-09-23T19:11:53.084Z,13.76
2022-09-23T19:14:21.059Z,13.71
2022-09-23T19:16:48.788Z,13.64
2022-09-23T19:19:16.795Z,13.55
2022-09-23T19:21:44.076Z,13.50
2022-09-23T19:24:15.175Z,13.41
2022-09-23T19:26:45.258Z,13.35
2022-09-23T19:29:18.435Z,13.29
2022-09-23T19:31:47.416Z,13.22
2022-09-23T19:34:19.349Z,13.17
2022-09-23T19:36:48.234Z,13.13
2022-09-23T19:39:25.590Z,13.05
2022-09-23T19:41:55.255Z,13.03
2022-09-23T19:44:25.615Z,12.99
2022-09-23T19:46:56.890Z,12.95
2022-09-23T19:49:29.493Z,12.91
2022-09-23T19:51:58.442Z,12.85
2022-09-23T19:54:27.085Z,12.80
2022-09-23T19:56:55.126Z,12.73
2022-09-23T19:59:22.947Z,12.69
2022-09-23T20:01:53.517Z,12.60
2022-09-23T20:04:23.053Z,12.59
2022-09-23T20:06:50.651Z,12.58
2022-09-23T20:09:18.518Z,12.56
2022-09-23T20:11:47.835Z,12.52
2022-09-23T20:14:15.668Z,12.46
2022-09-23T20:16:47.641Z,12.41
2022-09-23T20:19:15.177Z,12.37
2022-09-23T20:21:43.716Z,12.35
2022-09-23T20:24:12.428Z,12.31
2022-09-23T20:26:41.326Z,12.30
2022-09-23T20:29:09.063Z,12.28
2022-09-23T20:31:36.861Z,12.24
2022-09-23T20:34:06.096Z,12.25
2022-09-23T20:36:35.622Z,12.20
2022-09-23T20:39:07.223Z,12.17
2022-09-23T20:41:38.102Z,12.15
2022-09-23T20:44:10.469Z,12.12
2022-09-23T20:46:39.521Z,12.01
2022-09-23T20:49:08.821Z,11.98
2022-09-23T20:51:38.605Z,11.95
2022-09-23T20:54:06.563Z,11.91
2022-09-23T20:56:34.470Z,11.88
2022-09-23T20:59:05.093Z,11.83
2022-09-23T21:01:36.672Z,11.85
2022-09-23T21:04:04.679Z,11.88
2022-09-23T21:06:34.573Z,11.85
2022-09-23T21:09:02.359Z,11.83
2022-09-23T21:11:29.835Z,11.80
2022-09-23T21:13:57.020Z,11.77
2022-09-23T21:16:25.255Z,11.72
2022-09-23T21:18:54.251Z,11.68
2022-09-23T21:21:22.533Z,11.61
2022-09-23T21:23:51.090Z,11.61
2022-09-23T21:26:26.974Z,11.56
2022-09-23T21:29:01.499Z,11.51
2022-09-23T21:31:35.562Z,11.49
2022-09-23T21:34:09.865Z,11.44
2022-09-23T21:36:40.256Z,11.43
2022-09-23T21:39:09.374Z,11.43
2022-09-23T21:41:38.539Z,11.42
2022-09-23T21:44:06.780Z,11.38
2022-09-23T21:46:35.558Z,11.36
2022-09-23T21:49:04.244Z,11.32
2022-09-23T21:51:38.392Z,11.26
2022-09-23T21:54:08.121Z,11.23
2022-09-23T21:56:35.361Z,11.14
2022-09-23T21:59:04.177Z,11.14
2022-09-23T22:01:35.623Z,11.10
2022-09-23T22:04:06.770Z,11.04
2022-09-23T22:06:37.222Z,10.98
2022-09-23T22:09:09.075Z,10.94
2022-09-23T22:11:38.109Z,10.89
2022-09-23T22:14:10.070Z,10.89
2022-09-23T22:16:37.441Z,10.86
2022-09-23T22:19:05.908Z,10.86
2022-09-23T22:21:36.520Z,10.85
2022-09-23T22:24:07.012Z,10.88
2022-09-23T22:26:44.592Z,10.89
2022-09-23T22:29:15.635Z,10.90
2022-09-23T22:31:42.907Z,10.88
2022-09-23T22:34:25.512Z,10.89
2022-09-23T22:36:59.667Z,10.88
2022-09-23T22:39:29.072Z,10.89
2022-09-23T22:41:59.495Z,10.88
2022-09-23T22:44:26.721Z,10.85
2022-09-23T22:46:53.874Z,10.83
2022-09-23T22:49:21.109Z,10.83
2022-09-23T22:51:48.393Z,10.81
2022-09-23T22:54:15.549Z,10.81
2022-09-23T22:56:42.862Z,10.81
2022-09-23T22:59:12.697Z,10.82
2022-09-23T23:01:40.698Z,10.83
2022-09-23T23:04:09.906Z,10.79
2022-09-23T23:06:37.335Z,10.79
2022-09-23T23:09:11.414Z,10.79
2022-09-23T23:11:38.589Z,10.70
2022-09-23T23:14:05.911Z,10.72
2022-09-23T23:16:33.287Z,10.79
2022-09-23T23:19:06.798Z,10.81
2022-09-23T23:21:34.537Z,10.77
2022-09-23T23:24:02.461Z,10.74
2022-09-23T23:26:30.986Z,10.68
2022-09-23T23:28:58.489Z,10.68
2022-09-23T23:31:28.917Z,10.69
2022-09-23T23:33:56.264Z,10.68
2022-09-23T23:36:24.074Z,10.66
2022-09-23T23:38:52.066Z,10.64
2022-09-23T23:41:22.998Z,10.69
2022-09-23T23:43:59.988Z,10.71
2022-09-23T23:46:30.413Z,10.70
2022-09-23T23:48:58.242Z,10.69
2022-09-23T23:51:27.254Z,10.72
2022-09-23T23:53:55.993Z,10.75
2022-09-23T23:56:26.167Z,10.76
2022-09-23T23:59:01.864Z,10.77
